Time;durP1;ratioP1;P1;durP2;ratioP2;P2;SDS_P1;SDS_P2;PMS_P1;PMS_P2;Temp;Humidity;BMP_temperature;BMP_pressure;BME280_temperature;BME280_humidity;BME280_pressure;Samples;Min_cycle;Max_cycle;Signal;HPM_P1;HPM_P2
2021/11/01 00:01:10;;;;;;;;;23.75;20.00;;;;;15.30;53.90;97855.94;4803060;28;103732;-69
2021/11/01 00:03:37;;;;;;;;;27.25;24.00;;;;;15.30;54.22;97858.66;4796861;28;102435;-69
2021/11/01 00:06:06;;;;;;;;;27.75;20.50;;;;;15.29;53.78;97850.72;4801187;29;102710;-69
2021/11/01 00:08:33;;;;;;;;;31.25;26.00;;;;;15.28;53.96;97841.72;4798141;29;105962;-69
2021/11/01 00:11:00;;;;;;;;;21.50;19.00;;;;;15.29;53.78;97845.28;4780495;28;103271;-69
2021/11/01 00:13:27;;;;;;;;;23.50;23.25;;;;;15.30;53.91;97855.13;4804723;29;102652;-69
2021/11/01 00:15:54;;;;;;;;;30.25;24.00;;;;;15.27;53.78;97833.81;4789198;29;102630;-69
2021/11/01 00:18:21;;;;;;;;;28.25;22.50;;;;;15.28;54.06;97839.00;4800971;28;105248;-69
2021/11/01 00:20:48;;;;;;;;;29.25;23.50;;;;;15.26;54.05;97840.34;4798485;28;102348;-69
2021/11/01 00:23:15;;;;;;;;;25.75;24.00;;;;;15.26;53.94;97830.28;4811504;28;102660;-69
2021/11/01 00:25:42;;;;;;;;;27.25;24.25;;;;;15.24;54.14;97829.69;4801562;28;103387;-69
2021/11/01 00:28:11;;;;;;;;;26.50;22.75;;;;;15.24;53.42;97828.88;4802745;29;104131;-69
2021/11/01 00:30:39;;;;;;;;;29.75;24.75;;;;;15.24;54.29;97828.88;4801158;29;104502;-69
2021/11/01 00:33:06;;;;;;;;;26.75;24.50;;;;;15.24;53.77;97826.97;4782451;29;103073;-69
2021/11/01 00:35:33;;;;;;;;;29.25;25.00;;;;;15.23;53.80;97829.94;4819229;28;103158;-69
2021/11/01 00:38:00;;;;;;;;;25.75;24.25;;;;;15.21;53.98;97829.38;4821306;28;104326;-69
2021/11/01 00:40:27;;;;;;;;;27.25;23.25;;;;;15.21;54.03;97823.94;4807941;29;109305;-69
2021/11/01 00:42:54;;;;;;;;;27.75;25.50;;;;;15.21;54.15;97821.19;4818239;28;102418;-69
2021/11/01 00:45:21;;;;;;;;;32.50;24.00;;;;;15.19;54.10;97813.28;4810095;28;102666;-69
2021/11/01 00:47:48;;;;;;;;;27.00;25.00;;;;;15.18;53.77;97812.44;4809935;28;103953;-69
2021/11/01 00:50:15;;;;;;;;;27.50;24.50;;;;;15.17;53.25;97799.91;4822815;28;102599;-69
2021/11/01 00:52:42;;;;;;;;;31.00;27.75;;;;;15.19;53.84;97799.66;4824013;28;103110;-69
2021/11/01 00:55:18;;;;;;;;;27.25;21.25;;;;;15.17;53.70;97797.16;4824228;28;103421;-69
2021/11/01 00:57:45;;;;;;;;;29.00;26.25;;;;;15.17;53.83;97790.94;4803369;29;109096;-69
2021/11/01 01:00:13;;;;;;;;;32.25;26.00;;;;;15.17;53.76;97799.09;4823121;28;103837;-69
2021/11/01 01:02:39;;;;;;;;;28.00;26.25;;;;;15.16;53.75;97784.66;4805336;28;103488;-69
2021/11/01 01:05:07;;;;;;;;;33.00;25.75;;;;;15.14;54.00;97800.41;4808164;28;105309;-69
2021/11/01 01:07:34;;;;;;;;;27.75;24.25;;;;;15.13;53.84;97790.56;4791772;28;104269;-69
2021/11/01 01:10:03;;;;;;;;;30.25;24.25;;;;;15.13;53.83;97787.84;4811850;28;102531;-69
2021/11/01 01:12:30;;;;;;;;;28.00;26.00;;;;;15.14;53.87;97788.69;4809928;28;103183;-69
2021/11/01 01:15:01;;;;;;;;;26.00;22.50;;;;;15.14;54.07;97794.97;4800640;28;102373;-69
2021/11/01 01:17:29;;;;;;;;;24.50;23.00;;;;;15.12;53.80;97778.06;4815676;28;104343;-69
2021/11/01 01:20:03;;;;;;;;;30.75;25.00;;;;;15.11;53.95;97795.47;4805150;29;102556;-69
2021/11/01 01:22:30;;;;;;;;;34.00;27.00;;;;;15.08;53.84;97782.31;4823554;28;102459;-69
2021/11/01 01:25:04;;;;;;;;;32.25;25.25;;;;;15.10;54.10;97782.09;4808791;29;102631;-69
2021/11/01 01:27:36;;;;;;;;;28.00;26.25;;;;;15.11;53.96;97783.75;4830852;28;104428;-69
2021/11/01 01:30:03;;;;;;;;;30.00;28.25;;;;;15.09;53.80;97781.25;4820910;28;103654;-69
2021/11/01 01:32:30;;;;;;;;;34.25;26.50;;;;;15.08;53.88;97774.16;4810369;28;102608;-69
2021/11/01 01:34:57;;;;;;;;;30.00;28.25;;;;;15.09;53.87;97764.94;4829311;28;102654;-69
2021/11/01 01:37:24;;;;;;;;;28.75;25.75;;;;;15.09;53.75;97764.09;4811292;28;104222;-69
2021/11/01 01:39:51;;;;;;;;;24.00;20.75;;;;;15.08;53.45;97768.72;4806317;29;102593;-69
2021/11/01 01:42:18;;;;;;;;;24.25;21.00;;;;;15.08;53.70;97763.28;4798682;28;102458;-69
2021/11/01 01:44:45;;;;;;;;;24.75;22.75;;;;;15.05;53.77;97766.50;4785814;29;102786;-69
2021/11/01 01:47:12;;;;;;;;;25.50;24.25;;;;;15.05;53.92;97763.78;4803281;29;104092;-69
2021/11/01 01:49:39;;;;;;;;;27.00;24.00;;;;;15.05;53.87;97761.06;4803064;29;102609;-69
2021/11/01 01:52:06;;;;;;;;;25.00;22.50;;;;;15.05;54.01;97765.69;4796601;29;103073;-69
2021/11/01 01:54:33;;;;;;;;;36.50;26.75;;;;;15.04;53.95;97762.13;4805768;29;102827;-69
2021/11/01 01:57:00;;;;;;;;;29.50;26.50;;;;;15.03;53.85;97754.22;4789455;29;106089;-69
2021/11/01 01:59:28;;;;;;;;;25.50;23.25;;;;;15.02;53.86;97756.13;4800741;29;102338;-69
2021/11/01 02:01:56;;;;;;;;;31.50;24.25;;;;;15.01;53.98;97746.31;4757341;29;104709;-69
2021/11/01 02:04:24;;;;;;;;;32.75;26.00;;;;;15.02;54.00;97758.00;4777120;29;102755;-69
2021/11/01 02:06:56;;;;;;;;;29.50;24.75;;;;;14.99;54.17;97747.63;4786086;29;102794;-69
2021/11/01 02:09:40;;;;;;;;;29.00;24.50;;;;;15.01;54.26;97751.75;4789392;29;102691;-69
2021/11/01 02:12:14;;;;;;;;;27.75;25.25;;;;;14.99;53.62;97743.03;4797823;29;102834;-69
2021/11/01 02:14:50;;;;;;;;;28.25;25.00;;;;;15.01;54.02;97737.31;4794543;29;106302;-69
2021/11/01 02:17:22;;;;;;;;;27.75;23.50;;;;;15.02;53.89;97736.25;4776506;29;109949;-69
2021/11/01 02:19:50;;;;;;;;;28.75;24.75;;;;;15.01;53.68;97732.69;4793848;29;102446;-69
2021/11/01 02:22:44;;;;;;;;;22.50;21.75;;;;;15.00;53.59;97732.94;4796054;29;104304;-69
2021/11/01 02:25:39;;;;;;;;;27.50;25.50;;;;;14.99;53.85;97729.41;4797434;29;104371;-69
2021/11/01 02:28:08;;;;;;;;;29.75;22.75;;;;;15.00;53.94;97724.75;4796519;28;108895;-69
2021/11/01 02:30:39;;;;;;;;;24.75;19.25;;;;;14.99;53.78;97723.97;4798614;29;102767;-69
2021/11/01 02:33:07;;;;;;;;;31.00;25.50;;;;;14.98;53.84;97725.03;4797490;29;108755;-69
2021/11/01 02:35:35;;;;;;;;;27.25;24.75;;;;;14.96;54.24;97721.72;4784614;29;102602;-69
2021/11/01 02:38:04;;;;;;;;;29.75;22.00;;;;;14.97;53.77;97717.94;4787177;28;104331;-69
2021/11/01 02:40:31;;;;;;;;;24.50;18.25;;;;;14.98;54.40;97714.13;4800498;29;104729;-69
2021/11/01 02:42:59;;;;;;;;;14.75;10.75;;;;;14.99;54.23;97720.41;4802523;29;103258;-69
2021/11/01 02:45:26;;;;;;;;;28.50;24.75;;;;;14.97;54.02;97712.50;4783462;29;102932;-69
2021/11/01 02:47:53;;;;;;;;;30.25;25.00;;;;;14.97;53.94;97715.22;4799281;29;102922;-69
2021/11/01 02:50:20;;;;;;;;;25.75;23.75;;;;;14.99;53.75;97721.25;4804223;29;102552;-69
2021/11/01 02:52:47;;;;;;;;;26.75;23.50;;;;;14.98;53.67;97714.13;4805216;28;102520;-69
2021/11/01 02:55:14;;;;;;;;;25.00;21.00;;;;;14.99;53.64;97714.97;4805196;28;102725;-69
2021/11/01 02:57:42;;;;;;;;;22.00;20.25;;;;;14.99;53.69;97714.97;4803258;29;103841;-69
2021/11/01 03:00:11;;;;;;;;;27.75;20.25;;;;;15.00;53.63;97717.41;4805470;28;103294;-69
2021/11/01 03:02:38;;;;;;;;;26.25;24.25;;;;;15.01;53.31;97708.19;4805752;29;102764;-69
2021/11/01 03:05:09;;;;;;;;;25.50;24.75;;;;;15.00;53.69;97714.69;4801291;29;102659;-69
2021/11/01 03:07:36;;;;;;;;;21.50;20.25;;;;;14.99;53.78;97704.91;4785974;29;110851;-69
2021/11/01 03:10:04;;;;;;;;;27.00;23.50;;;;;14.98;53.70;97708.69;4787132;29;103421;-69
2021/11/01 03:12:31;;;;;;;;;24.75;21.00;;;;;14.97;53.95;97696.16;4790061;29;103014;-69
2021/11/01 03:15:01;;;;;;;;;25.75;23.25;;;;;14.99;53.70;97695.91;4796137;29;102599;-69
2021/11/01 03:17:32;;;;;;;;;31.25;23.50;;;;;14.98;53.75;97691.53;4799851;28;104410;-69
2021/11/01 03:20:03;;;;;;;;;24.25;21.75;;;;;14.98;53.42;97697.81;4785717;29;102617;-69
2021/11/01 03:22:37;;;;;;;;;27.25;22.50;;;;;14.96;53.47;97694.50;4800294;29;106434;-69
2021/11/01 03:25:06;;;;;;;;;20.50;17.00;;;;;14.97;53.88;97688.00;4804424;29;103685;-69
2021/11/01 03:27:35;;;;;;;;;26.75;22.00;;;;;14.96;53.63;97682.78;4791973;29;104227;-69
2021/11/01 03:30:03;;;;;;;;;26.75;22.75;;;;;14.97;54.14;97681.72;4798878;29;110347;-69
2021/11/01 03:32:31;;;;;;;;;23.50;19.75;;;;;14.95;53.35;97690.13;4802003;28;103552;-69
2021/11/01 03:35:00;;;;;;;;;25.00;23.50;;;;;14.96;53.81;97680.88;4800069;29;102797;-69
2021/11/01 03:37:29;;;;;;;;;27.25;23.50;;;;;14.96;53.43;97672.72;4802892;29;104111;-69
2021/11/01 03:39:57;;;;;;;;;27.75;23.25;;;;;14.97;53.68;97668.94;4804319;29;102550;-69
2021/11/01 03:42:25;;;;;;;;;27.75;20.00;;;;;14.97;53.53;97654.50;4784773;29;103551;-69
2021/11/01 03:44:59;;;;;;;;;26.50;21.25;;;;;14.97;53.29;97655.31;4801318;28;105382;-69
2021/11/01 03:47:28;;;;;;;;;22.50;22.50;;;;;14.95;53.51;97653.94;4809185;29;104133;-69
2021/11/01 03:49:58;;;;;;;;;23.00;18.50;;;;;14.96;53.45;97656.38;4804831;29;102286;-69
2021/11/01 03:52:28;;;;;;;;;24.75;21.50;;;;;14.93;53.97;97665.06;4800083;29;102442;-69
2021/11/01 03:54:55;;;;;;;;;24.00;17.75;;;;;14.93;53.68;97678.69;4805946;29;102456;-69
2021/11/01 03:57:22;;;;;;;;;23.00;19.00;;;;;14.91;53.80;97678.09;4809649;29;104419;-69
2021/11/01 03:59:49;;;;;;;;;27.25;21.50;;;;;14.91;53.61;97674.53;4803468;29;102973;-69
2021/11/01 04:02:17;;;;;;;;;24.75;21.00;;;;;14.91;53.92;97675.38;4806284;29;102634;-69
2021/11/01 04:04:45;;;;;;;;;20.50;19.25;;;;;14.90;53.26;97673.75;4806024;28;102518;-69
2021/11/01 04:07:13;;;;;;;;;18.25;18.00;;;;;14.90;53.78;97678.38;4803114;29;104543;-69
2021/11/01 04:09:40;;;;;;;;;23.50;20.25;;;;;14.90;53.30;97679.19;4802350;29;103481;-69
2021/11/01 04:12:09;;;;;;;;;25.50;22.50;;;;;14.88;53.54;97677.78;4806021;29;105544;-69
2021/11/01 04:14:46;;;;;;;;;16.50;14.75;;;;;14.90;53.34;97672.91;4804663;29;103624;-69
2021/11/01 04:19:59;;;;;;;;;22.00;18.50;;;;;14.89;53.51;97674.81;4808904;28;102284;-69
2021/11/01 04:22:29;;;;;;;;;22.75;19.75;;;;;14.89;53.54;97677.53;4795521;29;103074;-69
2021/11/01 04:24:57;;;;;;;;;21.50;17.00;;;;;14.90;53.14;97678.38;4804016;28;102751;-69
2021/11/01 04:27:24;;;;;;;;;26.00;19.25;;;;;14.89;53.17;97672.09;4804499;29;104088;-69
2021/11/01 04:29:51;;;;;;;;;21.00;19.25;;;;;14.88;53.15;97675.88;4806900;29;102750;-69
2021/11/01 04:32:34;;;;;;;;;25.00;23.00;;;;;14.87;53.31;97666.06;4801838;29;102376;-69
2021/11/01 04:35:15;;;;;;;;;19.00;18.00;;;;;14.84;53.85;97657.59;4814007;29;102514;-69
2021/11/01 04:37:43;;;;;;;;;18.25;16.75;;;;;14.82;53.60;97655.09;4820997;28;105709;-69
2021/11/01 04:53:28;;;;;;;;;25.75;20.50;;;;;14.78;53.39;97648.53;4813225;28;102491;-69
2021/11/01 04:55:55;;;;;;;;;21.50;20.00;;;;;14.77;53.55;97646.88;4801474;29;102579;-69
2021/11/01 04:58:23;;;;;;;;;17.00;16.00;;;;;14.76;53.50;97641.69;4803480;29;105639;-69
2021/11/01 05:00:51;;;;;;;;;21.25;20.25;;;;;14.77;53.18;97635.97;4818502;28;102485;-69
2021/11/01 05:05:49;;;;;;;;;22.00;18.25;;;;;14.78;53.23;97636.81;4799016;29;103640;-69
2021/11/01 05:08:20;;;;;;;;;21.25;16.75;;;;;14.76;53.26;97634.34;4778815;28;104251;-69
2021/11/01 05:11:13;;;;;;;;;17.00;16.00;;;;;14.77;53.43;97641.41;4805586;29;102768;-69
2021/11/01 05:13:55;;;;;;;;;26.00;22.25;;;;;14.72;53.26;97625.06;4726346;29;102711;-69
2021/11/01 05:16:35;;;;;;;;;22.75;20.00;;;;;14.73;53.20;97637.56;4726013;29;102615;-69
2021/11/01 05:19:22;;;;;;;;;21.00;17.75;;;;;14.72;53.28;97622.31;4718956;29;107636;-69
2021/11/01 05:24:33;;;;;;;;;18.50;17.25;;;;;14.72;53.54;97623.13;4741392;29;102463;-69
2021/11/01 05:27:23;;;;;;;;;20.50;17.75;;;;;14.72;53.77;97627.78;4735185;29;103915;-69
2021/11/01 05:29:52;;;;;;;;;12.50;9.50;;;;;14.70;53.40;97625.28;4738811;29;110280;-69
2021/11/01 05:32:25;;;;;;;;;19.50;18.00;;;;;14.69;53.04;97620.09;4723956;29;105304;-69
2021/11/01 05:34:52;;;;;;;;;16.50;15.25;;;;;14.67;53.30;97622.25;4726198;29;102968;-69
2021/11/01 05:37:20;;;;;;;;;21.50;16.25;;;;;14.68;53.68;97627.44;4704346;29;102813;-69
2021/11/01 05:39:49;;;;;;;;;21.50;20.50;;;;;14.66;53.52;97628.75;4743696;29;105385;-70
2021/11/01 05:42:17;;;;;;;;;24.75;19.75;;;;;14.65;53.48;97618.94;4680761;29;103131;-69
2021/11/01 05:44:44;;;;;;;;;20.50;17.00;;;;;14.66;53.42;97632.31;4742398;28;103093;-69
2021/11/01 05:47:12;;;;;;;;;20.25;18.00;;;;;14.67;53.51;97631.25;4811806;28;102757;-69
2021/11/01 05:49:40;;;;;;;;;21.25;18.00;;;;;14.67;52.98;97630.41;4814970;28;104083;-68
2021/11/01 05:52:16;;;;;;;;;18.25;16.50;;;;;14.66;53.29;97626.03;4797445;28;104887;-69
2021/11/01 05:54:44;;;;;;;;;18.50;17.50;;;;;14.67;52.90;97630.41;4789843;28;102306;-69
2021/11/01 05:57:30;;;;;;;;;22.75;19.50;;;;;14.65;53.60;97625.22;4814019;28;103498;-69
2021/11/01 06:05:26;;;;;;;;;21.75;20.25;;;;;14.62;53.48;97633.88;4802887;28;102937;-69
2021/11/01 06:08:09;;;;;;;;;22.00;19.00;;;;;14.61;53.14;97639.56;4807824;28;102569;-69
2021/11/01 06:10:52;;;;;;;;;21.00;19.75;;;;;14.61;53.36;97634.97;4798840;29;110044;-68
2021/11/01 06:15:52;;;;;;;;;20.00;17.50;;;;;14.61;53.52;97631.41;4819524;28;104283;-69
2021/11/01 06:18:19;;;;;;;;;21.00;20.25;;;;;14.60;53.43;97627.03;4805354;28;104483;-69
2021/11/01 06:20:46;;;;;;;;;23.75;18.00;;;;;14.60;53.53;97627.03;4821835;28;104160;-69
2021/11/01 06:23:14;;;;;;;;;19.00;16.00;;;;;14.58;53.45;97626.47;4810823;28;104513;-69
2021/11/01 06:25:41;;;;;;;;;17.00;16.00;;;;;14.59;53.76;97622.69;4808923;28;102483;-69
2021/11/01 06:28:12;;;;;;;;;21.00;17.00;;;;;14.60;53.34;97629.75;4805919;28;105153;-69
2021/11/01 06:30:45;;;;;;;;;19.25;16.25;;;;;14.63;53.31;97629.28;4801530;29;103807;-69
2021/11/01 06:55:53;;;;;;;;;41.25;34.25;;;;;14.61;53.80;97629.50;4749346;29;102592;-69
2021/11/01 07:15:03;;;;;;;;;30.50;29.00;;;;;14.64;52.75;97623.56;4815649;28;108681;-69
2021/11/01 07:17:40;;;;;;;;;23.75;21.25;;;;;14.63;53.34;97629.28;4805862;28;102879;-69
2021/11/01 07:23:05;;;;;;;;;36.75;31.25;;;;;14.62;52.61;97606.69;4813344;28;102326;-68
2021/11/01 08:27:13;;;;;;;;;25.75;25.00;;;;;14.77;51.98;97597.88;4797364;28;102344;-68
2021/11/01 09:04:04;;;;;;;;;23.50;23.25;;;;;14.99;51.89;97578.84;4790674;29;108735;-68
2021/11/01 09:12:27;;;;;;;;;28.25;25.00;;;;;15.00;51.63;97575.84;4816682;28;102476;-69
2021/11/01 09:20:20;;;;;;;;;25.75;24.50;;;;;15.04;51.63;97577.00;4816333;28;102572;-69
2021/11/01 09:25:43;;;;;;;;;30.75;27.25;;;;;15.07;51.88;97572.97;4804625;28;109072;-69
2021/11/01 09:28:19;;;;;;;;;27.50;25.75;;;;;15.08;51.68;97572.69;4815122;28;102426;-68
2021/11/01 09:36:27;;;;;;;;;26.00;24.75;;;;;15.10;51.71;97569.72;4812412;28;108769;-68
2021/11/01 09:39:29;;;;;;;;;28.25;24.50;;;;;15.12;51.64;97567.56;4810804;28;102482;-68
2021/11/01 09:41:55;;;;;;;;;27.00;23.00;;;;;15.13;51.85;97558.31;4813804;28;102263;-68
2021/11/01 09:44:26;;;;;;;;;27.00;25.50;;;;;15.13;51.77;97556.41;4810063;28;102213;-69
2021/11/01 09:46:58;;;;;;;;;26.00;24.00;;;;;15.14;51.27;97559.94;4812542;28;103878;-69
2021/11/01 09:49:25;;;;;;;;;24.75;22.50;;;;;15.14;51.35;97549.88;4795485;29;102354;-69
2021/11/01 09:51:54;;;;;;;;;24.50;19.75;;;;;15.14;51.60;97552.59;4787799;29;102981;-69
2021/11/01 09:54:26;;;;;;;;;28.75;23.25;;;;;15.11;51.38;97561.31;4810300;28;102704;-68
2021/11/01 09:57:04;;;;;;;;;24.00;22.25;;;;;15.13;51.79;97548.22;4810525;28;104127;-68
2021/11/01 09:59:36;;;;;;;;;23.00;20.00;;;;;15.17;51.92;97554.00;4803173;28;102949;-68
2021/11/01 10:02:06;;;;;;;;;26.25;24.00;;;;;15.19;51.64;97546.41;4799462;28;102478;-68
2021/11/01 10:04:33;;;;;;;;;23.00;22.50;;;;;15.19;51.78;97541.78;4815889;28;104386;-68
2021/11/01 10:07:20;;;;;;;;;24.75;23.00;;;;;15.21;51.72;97540.69;4816170;28;108962;-68
2021/11/01 10:09:51;;;;;;;;;27.50;23.00;;;;;15.21;51.97;97538.81;4817855;28;102576;-68
2021/11/01 10:12:26;;;;;;;;;25.50;23.75;;;;;15.23;51.63;97541.25;4804355;29;102385;-68
2021/11/01 10:14:59;;;;;;;;;24.75;23.00;;;;;15.25;51.34;97544.56;4823278;28;104218;-68
2021/11/01 10:17:35;;;;;;;;;25.00;20.25;;;;;15.25;51.77;97541.84;4815137;28;104369;-68
2021/11/01 10:20:08;;;;;;;;;24.50;22.00;;;;;15.27;51.62;97537.75;4813969;28;102401;-68
2021/11/01 10:22:37;;;;;;;;;24.75;23.75;;;;;15.27;51.63;97535.03;4806354;28;102499;-69
2021/11/01 10:25:06;;;;;;;;;23.25;21.25;;;;;15.27;51.27;97532.31;4806355;29;102625;-68
2021/11/01 10:27:40;;;;;;;;;25.00;21.50;;;;;15.28;51.45;97531.25;4821162;28;104482;-68
2021/11/01 10:30:14;;;;;;;;;29.50;25.25;;;;;15.29;51.86;97532.91;4813507;28;102451;-68
2021/11/01 10:32:44;;;;;;;;;23.75;22.00;;;;;15.30;51.34;97526.38;4808849;28;103265;-69
2021/11/01 10:35:25;;;;;;;;;25.50;20.50;;;;;15.30;51.15;97531.81;4819344;28;102615;-68
2021/11/01 10:38:28;;;;;;;;;23.75;20.00;;;;;15.32;51.24;97523.38;4789984;29;104195;-68
2021/11/01 10:44:43;;;;;;;;;22.00;18.50;;;;;15.35;51.26;97522.88;4813398;28;102680;-68
2021/11/01 11:14:36;;;;;;;;;18.50;17.25;;;;;15.51;50.88;97490.09;4804937;28;102925;-69
2021/11/01 11:17:19;;;;;;;;;19.75;18.25;;;;;15.54;50.41;97478.66;4824056;28;102176;-69
2021/11/01 11:20:20;;;;;;;;;21.50;19.75;;;;;15.59;51.18;97486.06;4794172;29;104086;-69
2021/11/01 11:23:55;;;;;;;;;17.00;16.50;;;;;15.64;50.57;97486.09;4807064;28;108900;-68
2021/11/01 11:38:00;;;;;;;;;14.00;13.75;;;;;15.87;49.54;97463.09;4816457;28;104595;-67
2021/11/01 11:43:36;;;;;;;;;16.25;15.00;;;;;15.97;49.22;97468.63;4806965;28;102699;-68
2021/11/01 11:49:03;;;;;;;;;17.50;15.50;;;;;16.10;49.56;97465.44;4797904;29;103282;-67
2021/11/01 11:51:30;;;;;;;;;16.50;16.00;;;;;16.14;49.62;97463.00;4811146;28;103611;-68
2021/11/01 11:53:58;;;;;;;;;17.75;14.75;;;;;16.17;50.05;97459.72;4813436;28;105659;-67
2021/11/01 11:56:43;;;;;;;;;17.25;16.00;;;;;16.21;49.97;97453.47;4817828;28;104513;-67
2021/11/01 11:59:10;;;;;;;;;16.00;15.50;;;;;16.26;50.00;97449.97;4813650;28;102209;-67
2021/11/01 12:01:40;;;;;;;;;18.00;16.00;;;;;16.29;49.76;97454.91;4817150;28;102447;-68
2021/11/01 12:04:33;;;;;;;;;19.75;18.75;;;;;16.33;49.91;97456.84;4810389;28;103233;-67
2021/11/01 12:07:04;;;;;;;;;16.25;14.75;;;;;16.37;49.27;97452.50;4820544;28;108933;-67
2021/11/01 12:09:47;;;;;;;;;16.25;15.25;;;;;16.40;49.24;97443.75;4813039;28;103780;-68
2021/11/01 12:17:27;;;;;;;;;18.00;15.75;;;;;16.53;49.40;97446.00;4813889;28;104192;-67
2021/11/01 12:20:03;;;;;;;;;18.25;15.00;;;;;16.58;49.95;97438.94;4791154;29;102511;-68
2021/11/01 12:22:35;;;;;;;;;18.25;16.00;;;;;16.61;48.89;97435.69;4803765;28;102639;-67
2021/11/01 12:25:07;;;;;;;;;18.75;17.00;;;;;16.65;49.48;97434.91;4779826;29;103139;-68
2021/11/01 12:27:42;;;;;;;;;14.75;14.25;;;;;16.69;49.39;97429.72;4811016;29;108222;-68
2021/11/01 12:30:11;;;;;;;;;18.75;16.25;;;;;16.70;49.37;97421.25;4813156;28;103651;-68
2021/11/01 12:32:40;;;;;;;;;15.00;13.50;;;;;16.74;49.23;97419.63;4808970;28;103207;-67
2021/11/01 12:35:13;;;;;;;;;18.75;17.00;;;;;16.79;48.84;97416.91;4827538;28;102222;-68
2021/11/01 12:37:51;;;;;;;;;18.75;16.25;;;;;16.82;49.52;97427.28;4806655;28;108724;-67
2021/11/01 12:40:28;;;;;;;;;15.25;14.00;;;;;16.85;49.14;97417.72;4806769;29;103598;-67
2021/11/01 12:59:48;;;;;;;;;17.25;13.00;;;;;17.10;48.72;97409.59;4811460;28;104230;-68
2021/11/01 13:02:19;;;;;;;;;15.00;14.00;;;;;17.16;49.01;97407.66;4820273;28;102334;-68
2021/11/01 13:04:48;;;;;;;;;15.00;13.50;;;;;17.20;48.99;97398.66;4817294;28;102668;-69
2021/11/01 13:10:22;;;;;;;;;12.25;12.25;;;;;17.29;49.52;97404.41;4820946;28;103960;-69
2021/11/01 13:19:15;;;;;;;;;11.50;10.00;;;;;17.38;48.95;97402.78;4806624;28;103382;-73
2021/11/01 13:21:53;;;;;;;;;13.25;12.75;;;;;17.38;48.54;97403.56;4823896;28;107709;-70
2021/11/01 13:24:54;;;;;;;;;11.75;10.00;;;;;17.42;48.77;97400.31;4815851;28;102752;-70
2021/11/01 13:35:45;;;;;;;;;10.25;10.25;;;;;17.49;48.75;97396.19;4792142;29;102528;-71
2021/11/01 13:38:22;;;;;;;;;12.50;11.50;;;;;17.51;49.10;97404.13;4811294;28;102741;-71
2021/11/01 13:40:50;;;;;;;;;15.67;13.33;;;;;17.50;48.88;97397.84;4788622;28;102470;-71
2021/11/01 13:43:25;;;;;;;;;12.00;10.75;;;;;17.49;49.76;97396.19;4781716;29;104285;-71
2021/11/01 13:45:54;;;;;;;;;10.75;9.50;;;;;17.51;48.74;97399.50;4817161;28;102792;-71
2021/11/01 13:48:32;;;;;;;;;9.75;9.00;;;;;17.53;49.35;97389.09;4820051;28;102245;-71
2021/11/01 13:51:12;;;;;;;;;12.00;10.00;;;;;17.53;50.21;97397.28;4772365;29;103069;-72
2021/11/01 13:56:52;;;;;;;;;11.25;10.00;;;;;17.51;50.03;97399.50;4793303;28;103897;-72
2021/11/01 13:59:36;;;;;;;;;11.00;9.00;;;;;17.51;49.50;97394.03;4820381;28;102283;-71
2021/11/01 14:02:42;;;;;;;;;12.50;9.00;;;;;17.51;49.43;97393.19;4806430;28;102512;-71
2021/11/01 14:13:38;;;;;;;;;8.33;8.33;;;;;17.50;49.20;97395.13;4826104;29;102392;-71
2021/11/01 14:16:29;;;;;;;;;9.67;8.00;;;;;17.52;50.57;97394.81;4818200;28;103533;-71
2021/11/01 14:30:06;;;;;;;;;12.00;10.00;;;;;17.53;50.60;97386.34;4805618;28;103089;-72
2021/11/01 15:12:34;;;;;;;;;6.33;5.67;;;;;18.07;52.45;97399.41;4746386;29;109042;-58
2021/11/01 15:19:24;;;;;;;;;6.00;5.00;;;;;18.47;51.90;97395.69;4770981;29;102682;-58
2021/11/01 15:39:55;;;;;;;;;6.67;6.00;;;;;18.73;52.01;97399.16;4772800;29;102626;-59
2021/11/01 16:18:12;;;;;;;;;7.33;5.67;;;;;18.94;51.95;97370.53;4760992;29;103784;-58
2021/11/01 16:20:40;;;;;;;;;7.33;6.33;;;;;19.01;51.88;97368.28;4759471;29;103409;-58
2021/11/01 16:25:38;;;;;;;;;7.67;7.00;;;;;19.04;51.96;97370.47;4759485;29;104232;-59
2021/11/01 16:28:05;;;;;;;;;8.00;7.00;;;;;19.09;52.03;97370.44;4756241;29;105797;-58
2021/11/01 16:30:33;;;;;;;;;6.67;6.33;;;;;19.05;53.71;97372.09;4773907;29;102543;-58
2021/11/01 16:33:02;;;;;;;;;6.33;6.00;;;;;18.98;54.32;97366.94;4760162;29;103141;-59
2021/11/01 16:35:35;;;;;;;;;8.67;7.00;;;;;18.97;54.93;97372.69;4753150;29;104571;-58
2021/11/01 16:38:21;;;;;;;;;9.00;9.00;;;;;18.93;55.07;97375.19;4770517;29;104091;-59
2021/11/01 16:40:48;;;;;;;;;8.00;7.00;;;;;18.89;55.48;97365.09;4758952;29;102615;-58
2021/11/01 16:43:17;;;;;;;;;9.33;8.00;;;;;18.85;55.58;97366.75;4765708;29;102100;-58
2021/11/01 16:45:46;;;;;;;;;7.00;7.00;;;;;18.82;55.54;97361.84;4758211;29;108870;-58
2021/11/01 16:48:13;;;;;;;;;9.00;8.67;;;;;18.78;55.45;97366.28;4761322;29;102658;-58
2021/11/01 16:50:55;;;;;;;;;9.67;7.67;;;;;18.75;55.63;97359.41;4733475;29;103649;-58
2021/11/01 16:53:22;;;;;;;;;7.67;6.33;;;;;18.71;55.89;97359.19;4766245;29;102171;-58
2021/11/01 16:55:52;;;;;;;;;6.33;6.00;;;;;18.71;56.06;97358.34;4762166;29;104090;-58
2021/11/01 16:58:25;;;;;;;;;8.00;7.00;;;;;18.67;56.41;97360.84;4767347;29;102255;-59
2021/11/01 17:00:59;;;;;;;;;7.67;7.00;;;;;18.65;56.25;97354.81;4770521;29;103166;-58
2021/11/01 17:07:11;;;;;;;;;6.33;6.00;;;;;18.61;56.16;97366.63;4884929;23;108333;-59
2021/11/01 17:25:58;;;;;;;;;6.67;6.67;;;;;18.45;56.83;97381.47;4781457;29;104507;-60
2021/11/01 17:36:53;;;;;;;;;7.67;7.67;;;;;18.37;56.25;97382.06;4794530;29;103251;-58
2021/11/01 18:41:25;;;;;;;;;11.00;9.00;;;;;18.22;56.29;97356.41;4804985;29;103526;-60
2021/11/01 18:52:15;;;;;;;;;10.67;10.00;;;;;18.30;56.93;97346.78;4803226;29;102799;-60
2021/11/01 18:54:43;;;;;;;;;10.00;9.67;;;;;18.31;56.88;97348.41;4808462;29;102778;-60
2021/11/01 18:57:12;;;;;;;;;13.67;10.00;;;;;18.31;56.66;97351.16;4807694;28;104076;-59
2021/11/01 18:59:40;;;;;;;;;12.00;9.00;;;;;18.32;56.54;97351.97;4810124;28;102482;-59
2021/11/01 19:05:13;;;;;;;;;10.67;10.00;;;;;18.33;56.60;97350.88;4801535;29;102545;-59
2021/11/01 19:07:50;;;;;;;;;13.00;11.00;;;;;18.32;57.55;97339.13;4803257;29;104047;-60
2021/11/01 19:13:23;;;;;;;;;12.00;10.67;;;;;18.34;57.08;97342.38;4809736;28;102658;-59
2021/11/01 21:26:30;;;;;;;;;14.33;12.67;;;;;17.93;59.64;97329.97;4784451;29;110136;-60
2021/11/01 21:29:00;;;;;;;;;15.00;13.25;;;;;17.91;59.30;97326.69;4803633;29;102405;-59
2021/11/01 21:31:28;;;;;;;;;15.33;14.00;;;;;17.89;59.24;97317.94;4785354;29;103377;-60
2021/11/01 21:33:57;;;;;;;;;12.33;11.67;;;;;17.88;58.97;97325.31;4785160;29;102471;-60
2021/11/01 21:36:24;;;;;;;;;13.25;11.25;;;;;17.87;59.29;97314.69;4804363;29;111766;-59
2021/11/01 21:38:52;;;;;;;;;12.33;11.00;;;;;17.86;59.69;97323.97;4796659;29;103070;-60
2021/11/01 21:41:19;;;;;;;;;11.00;11.00;;;;;17.83;59.21;97309.75;4809730;29;102410;-60
2021/11/01 21:43:46;;;;;;;;;15.00;12.25;;;;;17.82;59.95;97312.78;4812269;29;102166;-60
2021/11/01 21:46:14;;;;;;;;;17.00;15.25;;;;;17.80;60.16;97315.78;4795552;29;104080;-60
2021/11/01 21:48:41;;;;;;;;;16.00;12.00;;;;;17.80;60.34;97304.84;4798380;29;105224;-60
2021/11/01 21:51:08;;;;;;;;;17.00;14.67;;;;;17.78;59.52;97312.53;4801325;29;103355;-60
2021/11/01 21:53:36;;;;;;;;;16.50;14.50;;;;;17.76;59.98;97303.78;4802801;29;102126;-60
2021/11/01 21:56:03;;;;;;;;;14.75;12.00;;;;;17.74;59.66;97295.03;4751072;29;104024;-60
2021/11/01 22:20:12;;;;;;;;;16.00;15.50;;;;;17.62;60.75;97278.13;4799917;29;103188;-60
2021/11/01 22:25:15;;;;;;;;;16.50;14.75;;;;;17.59;61.04;97267.75;4795020;29;104580;-59
2021/11/01 22:33:38;;;;;;;;;18.00;16.75;;;;;17.57;61.23;97256.22;4720210;29;102689;-60
2021/11/01 22:41:28;;;;;;;;;19.25;17.25;;;;;17.55;61.19;97252.97;4801243;29;107562;-59